createdAt,value
2023-05-22T00:00:40.669Z,94.56
2023-05-22T00:01:40.439Z,94.56
2023-05-22T00:02:40.506Z,94.56
2023-05-22T00:03:40.422Z,94.66
2023-05-22T00:04:40.450Z,94.46
2023-05-22T00:05:40.423Z,94.46
2023-05-22T00:06:40.368Z,94.46
2023-05-22T00:07:40.413Z,94.56
2023-05-22T00:08:40.361Z,94.76
2023-05-22T00:09:40.331Z,94.56
2023-05-22T00:10:40.537Z,94.46
2023-05-22T00:11:40.326Z,94.96
2023-05-22T00:12:40.316Z,95.31
2023-05-22T00:13:40.293Z,95.62
2023-05-22T00:14:40.294Z,95.92
2023-05-22T00:15:40.248Z,96.02
2023-05-22T00:16:40.357Z,96.33
2023-05-22T00:17:40.269Z,96.33
2023-05-22T00:18:40.226Z,96.53
2023-05-22T00:19:40.198Z,96.53
2023-05-22T00:20:40.334Z,96.33
2023-05-22T00:21:40.174Z,96.33
2023-05-22T00:22:40.188Z,96.63
2023-05-22T00:23:40.207Z,96.73
2023-05-22T00:24:40.154Z,96.93
2023-05-22T00:25:40.123Z,96.63
2023-05-22T00:26:40.113Z,96.67
2023-05-22T00:27:40.108Z,96.78
2023-05-22T00:28:40.083Z,96.73
2023-05-22T00:29:40.073Z,96.88
2023-05-22T00:30:40.340Z,96.78
2023-05-22T00:31:40.070Z,96.67
2023-05-22T00:32:40.077Z,96.78
2023-05-22T00:33:40.038Z,96.88
2023-05-22T00:34:40.114Z,96.98
2023-05-22T00:35:39.995Z,96.98
2023-05-22T00:36:39.985Z,96.78
2023-05-22T00:37:40.704Z,96.57
2023-05-22T00:38:39.983Z,96.78
2023-05-22T00:39:39.968Z,96.78
2023-05-22T00:40:40.166Z,96.67
2023-05-22T00:41:39.928Z,96.53
2023-05-22T00:42:39.926Z,96.67
2023-05-22T00:43:39.897Z,96.57
2023-05-22T00:44:39.881Z,96.57
2023-05-22T00:45:39.869Z,96.47
2023-05-22T00:46:39.904Z,96.17
2023-05-22T00:47:39.857Z,96.47
2023-05-22T00:48:39.823Z,96.47
2023-05-22T00:49:39.826Z,96.37
2023-05-22T00:50:40.069Z,96.17
2023-05-22T00:51:39.809Z,96.07
2023-05-22T00:52:39.772Z,96.37
2023-05-22T00:53:39.756Z,96.57
2023-05-22T00:54:39.748Z,96.82
2023-05-22T00:55:39.748Z,97.13
2023-05-22T00:56:39.734Z,97.02
2023-05-22T00:57:39.712Z,97.13
2023-05-22T00:58:39.691Z,97.13
2023-05-22T00:59:39.684Z,97.02
2023-05-22T01:00:39.977Z,96.78
2023-05-22T01:01:39.693Z,96.88
2023-05-22T01:02:39.778Z,96.78
2023-05-22T01:03:39.785Z,96.67
2023-05-22T01:04:39.611Z,96.98
2023-05-22T01:05:39.619Z,97.13
2023-05-22T01:06:39.580Z,97.02
2023-05-22T01:07:39.576Z,97.38
2023-05-22T01:08:39.558Z,97.33
2023-05-22T01:09:39.546Z,96.98
2023-05-22T01:10:39.780Z,96.82
2023-05-22T01:11:39.551Z,96.92
2023-05-22T01:12:39.508Z,97.02
2023-05-22T01:13:39.495Z,96.92
2023-05-22T01:14:39.491Z,97.23
2023-05-22T01:15:39.481Z,97.53
2023-05-22T01:16:39.711Z,97.63
2023-05-22T01:17:39.512Z,97.63
2023-05-22T01:18:39.429Z,97.43
2023-05-22T01:19:39.444Z,97.43
2023-05-22T01:20:39.629Z,97.53
2023-05-22T01:21:39.389Z,97.73
2023-05-22T01:22:39.375Z,97.94
2023-05-22T01:23:39.371Z,98.03
2023-05-22T01:24:39.359Z,98.54
2023-05-22T01:25:39.374Z,98.74
2023-05-22T01:26:39.320Z,99.46
2023-05-22T01:27:39.335Z,99.55
2023-05-22T01:28:39.307Z,99.25
2023-05-22T01:29:39.295Z,99.86
2023-05-22T01:30:39.501Z,99.96
2023-05-22T01:31:39.268Z,99.99
2023-05-22T01:32:39.308Z,99.86
2023-05-22T01:33:39.372Z,99.55
2023-05-22T01:34:39.244Z,99.55
2023-05-22T01:35:39.213Z,99.55
2023-05-22T01:36:39.202Z,99.46
2023-05-22T01:37:39.178Z,99.76
2023-05-22T01:38:39.194Z,99.66
2023-05-22T01:39:39.177Z,99.66
2023-05-22T01:40:39.373Z,99.46
2023-05-22T01:41:39.158Z,99.25
2023-05-22T01:42:39.109Z,99.46
2023-05-22T01:43:39.138Z,99.55
2023-05-22T01:44:39.103Z,99.46
2023-05-22T01:45:39.100Z,99.76
2023-05-22T01:46:39.065Z,99.76
2023-05-22T01:47:39.126Z,99.86
2023-05-22T01:48:39.048Z,99.55
2023-05-22T01:49:39.052Z,99.55
2023-05-22T01:50:39.252Z,99.99
2023-05-22T01:51:39.027Z,99.99
2023-05-22T01:52:39.006Z,99.99
2023-05-22T01:53:38.984Z,99.96
2023-05-22T01:54:38.961Z,99.96
2023-05-22T01:55:38.941Z,99.99
2023-05-22T01:56:38.928Z,99.96
2023-05-22T01:57:38.946Z,99.76
2023-05-22T01:58:38.904Z,99.96
2023-05-22T01:59:39.034Z,99.99
2023-05-22T02:00:39.100Z,99.99
2023-05-22T02:01:38.979Z,99.91
2023-05-22T02:02:38.919Z,99.91
2023-05-22T02:03:38.895Z,99.70
2023-05-22T02:04:38.841Z,99.70
2023-05-22T02:05:38.821Z,99.99
2023-05-22T02:06:38.808Z,99.91
2023-05-22T02:07:38.810Z,99.99
2023-05-22T02:08:38.774Z,99.99
2023-05-22T02:09:38.767Z,99.99
2023-05-22T02:10:39.024Z,99.99
2023-05-22T02:11:38.751Z,99.99
2023-05-22T02:12:38.741Z,99.99
2023-05-22T02:13:38.713Z,99.99
2023-05-22T02:14:38.702Z,99.99
2023-05-22T02:15:38.743Z,99.99
2023-05-22T02:16:38.684Z,99.99
2023-05-22T02:17:38.697Z,99.99
2023-05-22T02:18:38.646Z,99.99
2023-05-22T02:19:38.722Z,99.99
2023-05-22T02:20:38.905Z,99.99
2023-05-22T02:21:38.638Z,99.99
2023-05-22T02:22:38.591Z,99.99
2023-05-22T02:23:38.591Z,99.99
2023-05-22T02:24:38.564Z,99.99
2023-05-22T02:25:38.566Z,99.99
2023-05-22T02:26:38.536Z,99.99
2023-05-22T02:27:38.549Z,99.99
2023-05-22T02:28:38.515Z,99.99
2023-05-22T02:29:38.497Z,99.99
2023-05-22T02:30:38.887Z,99.99
2023-05-22T02:31:38.530Z,99.99
2023-05-22T02:32:38.491Z,99.99
2023-05-22T02:33:38.447Z,99.99
2023-05-22T02:34:38.437Z,99.99
2023-05-22T02:35:38.439Z,99.99
2023-05-22T02:36:38.414Z,99.99
2023-05-22T02:37:38.416Z,99.99
2023-05-22T02:38:38.380Z,99.99
2023-05-22T02:39:38.385Z,99.99
2023-05-22T02:40:38.528Z,99.99
2023-05-22T02:41:38.346Z,99.99
2023-05-22T02:42:38.331Z,99.99
2023-05-22T02:43:38.319Z,99.99
2023-05-22T02:44:38.332Z,99.99
2023-05-22T02:45:38.287Z,99.99
2023-05-22T02:46:38.335Z,99.99
2023-05-22T02:47:38.403Z,99.99
2023-05-22T02:48:38.255Z,99.99
2023-05-22T02:49:38.249Z,99.99
2023-05-22T02:50:38.431Z,99.99
2023-05-22T02:51:38.228Z,99.99
2023-05-22T02:52:38.200Z,99.99
2023-05-22T02:53:38.180Z,99.99
2023-05-22T02:54:38.186Z,99.99
2023-05-22T02:55:38.158Z,99.99
2023-05-22T02:56:38.150Z,99.99
2023-05-22T02:57:38.137Z,99.99
2023-05-22T02:58:38.140Z,99.99
2023-05-22T02:59:38.116Z,99.99
2023-05-22T03:00:38.265Z,99.99
2023-05-22T03:01:38.138Z,99.99
2023-05-22T03:02:38.123Z,99.99
2023-05-22T03:03:38.231Z,99.99
2023-05-22T03:04:38.064Z,99.99
2023-05-22T03:05:38.025Z,99.99
2023-05-22T03:06:38.014Z,99.99
2023-05-22T03:07:38.010Z,99.99
2023-05-22T03:08:38.005Z,99.99
2023-05-22T03:09:37.970Z,99.99
2023-05-22T03:10:38.096Z,99.99
2023-05-22T03:11:37.982Z,99.99
2023-05-22T03:12:37.939Z,99.99
2023-05-22T03:13:37.934Z,99.99
2023-05-22T03:14:37.918Z,99.99
2023-05-22T03:15:37.905Z,99.99
2023-05-22T03:16:37.962Z,99.99
2023-05-22T03:17:37.905Z,99.99
2023-05-22T03:18:37.870Z,99.99
2023-05-22T03:19:37.861Z,99.99
2023-05-22T03:20:37.953Z,99.99
2023-05-22T03:21:37.825Z,99.99
2023-05-22T03:22:37.822Z,99.99
2023-05-22T03:23:37.793Z,99.99
2023-05-22T03:24:37.787Z,99.99
2023-05-22T03:25:37.777Z,99.99
2023-05-22T03:26:37.764Z,99.99
2023-05-22T03:27:37.757Z,99.99
2023-05-22T03:28:37.852Z,99.99
2023-05-22T03:29:37.710Z,99.99
2023-05-22T03:30:37.999Z,99.99
2023-05-22T03:31:37.701Z,99.99
2023-05-22T03:32:37.774Z,99.99
2023-05-22T03:33:37.721Z,99.99
2023-05-22T03:34:37.675Z,99.99
2023-05-22T03:35:37.677Z,99.99
2023-05-22T03:36:37.644Z,99.99
2023-05-22T03:37:37.618Z,99.99
2023-05-22T03:38:37.598Z,99.99
2023-05-22T03:39:37.581Z,99.99
2023-05-22T03:40:37.835Z,99.99
2023-05-22T03:41:37.579Z,99.99
2023-05-22T03:42:37.548Z,99.99
2023-05-22T03:43:37.526Z,99.99
2023-05-22T03:44:37.538Z,99.99
2023-05-22T03:45:37.552Z,99.99
2023-05-22T03:46:37.508Z,99.99
2023-05-22T03:47:37.530Z,99.99
2023-05-22T03:48:37.467Z,99.99
2023-05-22T03:49:37.455Z,99.99
2023-05-22T03:50:37.608Z,99.99
2023-05-22T03:51:37.466Z,99.99
2023-05-22T03:52:37.427Z,99.99
2023-05-22T03:53:37.395Z,99.99
2023-05-22T03:54:37.389Z,99.99
2023-05-22T03:55:37.395Z,99.99
2023-05-22T03:56:37.380Z,99.99
2023-05-22T03:57:37.345Z,99.99
2023-05-22T03:58:37.337Z,99.99
2023-05-22T03:59:37.319Z,99.99
2023-05-22T04:00:37.402Z,99.99
2023-05-22T04:01:37.297Z,99.99
2023-05-22T04:02:37.327Z,99.99
2023-05-22T04:03:37.336Z,99.99
2023-05-22T04:04:37.267Z,99.99
2023-05-22T04:05:37.272Z,99.99
2023-05-22T04:06:37.223Z,99.99
2023-05-22T04:07:37.246Z,99.99
2023-05-22T04:08:37.208Z,99.99
2023-05-22T04:09:37.210Z,99.99
2023-05-22T04:10:37.467Z,99.91
2023-05-22T04:11:37.160Z,99.70
2023-05-22T04:12:37.168Z,99.60
2023-05-22T04:13:37.140Z,99.30
2023-05-22T04:14:37.149Z,99.19
2023-05-22T04:15:37.148Z,99.10
2023-05-22T04:16:37.094Z,98.90
2023-05-22T04:17:37.163Z,98.74
2023-05-22T04:18:37.069Z,98.79
2023-05-22T04:19:37.102Z,98.54
2023-05-22T04:20:37.155Z,98.54
2023-05-22T04:21:37.028Z,98.65
2023-05-22T04:22:37.022Z,98.54
2023-05-22T04:23:37.024Z,98.44
2023-05-22T04:24:37.010Z,98.34
2023-05-22T04:25:36.989Z,98.39
2023-05-22T04:26:36.972Z,98.44
2023-05-22T04:27:36.951Z,98.54
2023-05-22T04:28:36.948Z,98.74
2023-05-22T04:29:36.941Z,98.44
2023-05-22T04:30:37.145Z,98.34
2023-05-22T04:31:37.029Z,98.39
2023-05-22T04:32:36.960Z,98.65
2023-05-22T04:33:36.897Z,98.34
2023-05-22T04:34:36.879Z,98.03
2023-05-22T04:35:36.858Z,97.89
2023-05-22T04:36:36.834Z,97.69
2023-05-22T04:37:36.846Z,97.58
2023-05-22T04:38:36.830Z,97.18
2023-05-22T04:39:36.821Z,96.98
2023-05-22T04:40:36.989Z,97.08
2023-05-22T04:41:36.834Z,96.83
2023-05-22T04:42:36.774Z,96.53
2023-05-22T04:43:39.680Z,96.73
2023-05-22T04:44:36.746Z,96.93
2023-05-22T04:45:36.720Z,96.83
2023-05-22T04:46:36.740Z,96.93
2023-05-22T04:47:37.236Z,97.14
2023-05-22T04:48:36.697Z,96.83
2023-05-22T04:49:36.673Z,96.73
2023-05-22T04:50:36.730Z,96.83
2023-05-22T04:51:36.653Z,96.93
2023-05-22T04:52:36.642Z,96.83
2023-05-22T04:53:36.612Z,96.73
2023-05-22T04:54:36.600Z,96.58
2023-05-22T04:55:36.605Z,96.28
2023-05-22T04:56:37.328Z,96.28
2023-05-22T04:57:36.577Z,96.38
2023-05-22T04:58:36.549Z,96.38
2023-05-22T04:59:36.533Z,95.83
2023-05-22T05:00:36.560Z,95.53
2023-05-22T05:01:36.576Z,95.53
2023-05-22T05:02:36.529Z,95.32
2023-05-22T05:03:36.524Z,94.67
2023-05-22T05:04:36.476Z,94.47
2023-05-22T05:05:36.455Z,94.07
2023-05-22T05:06:36.458Z,93.82
2023-05-22T05:07:36.441Z,93.52
2023-05-22T05:08:36.424Z,93.01
2023-05-22T05:09:36.401Z,92.77
2023-05-22T05:10:36.390Z,92.57
2023-05-22T05:11:36.422Z,92.16
2023-05-22T05:12:36.367Z,91.82
2023-05-22T05:13:36.352Z,91.51
2023-05-22T05:14:36.375Z,91.37
2023-05-22T05:15:36.328Z,90.77
2023-05-22T05:16:36.394Z,89.91
2023-05-22T05:17:36.313Z,89.41
2023-05-22T05:18:36.290Z,88.76
2023-05-22T05:19:37.156Z,87.87
2023-05-22T05:20:36.271Z,86.63
2023-05-22T05:21:36.257Z,85.64
2023-05-22T05:22:36.234Z,84.19
2023-05-22T05:23:36.232Z,82.51
2023-05-22T05:24:36.212Z,81.36
2023-05-22T05:25:36.209Z,79.88
2023-05-22T05:26:36.208Z,78.41
2023-05-22T05:27:36.182Z,77.50
2023-05-22T05:28:36.156Z,78.14
2023-05-22T05:29:36.138Z,78.78
2023-05-22T05:30:36.145Z,79.92
2023-05-22T05:31:36.159Z,80.56
2023-05-22T05:32:36.153Z,79.88
2023-05-22T05:33:36.088Z,78.64
2023-05-22T05:34:36.086Z,80.02
2023-05-22T05:35:36.080Z,80.52
2023-05-22T05:36:36.052Z,79.48
2023-05-22T05:37:36.035Z,78.74
2023-05-22T05:38:36.026Z,78.34
2023-05-22T05:39:36.025Z,78.72
2023-05-22T05:40:36.016Z,78.78
2023-05-22T05:41:35.993Z,77.60
2023-05-22T05:42:35.976Z,76.46
2023-05-22T05:43:36.012Z,76.50
2023-05-22T05:44:35.979Z,76.30
2023-05-22T05:45:35.935Z,76.50
2023-05-22T05:46:36.094Z,76.17
2023-05-22T05:47:35.931Z,76.50
2023-05-22T05:48:35.898Z,76.20
2023-05-22T05:49:36.076Z,76.54
2023-05-22T05:50:35.875Z,76.64
2023-05-22T05:51:35.852Z,76.40
2023-05-22T05:52:35.856Z,76.34
2023-05-22T05:53:35.832Z,78.22
2023-05-22T05:54:35.835Z,77.34
2023-05-22T05:55:35.802Z,76.10
2023-05-22T05:56:35.815Z,75.46
2023-05-22T05:57:35.791Z,75.06
2023-05-22T05:58:35.788Z,74.66
2023-05-22T05:59:35.793Z,74.13
2023-05-22T06:00:35.749Z,73.49
2023-05-22T06:01:35.740Z,74.03
2023-05-22T06:02:35.786Z,74.66
2023-05-22T06:03:35.771Z,74.33
2023-05-22T06:04:35.679Z,74.33
2023-05-22T06:05:35.705Z,73.93
2023-05-22T06:06:35.688Z,74.33
2023-05-22T06:07:35.647Z,74.83
2023-05-22T06:08:35.658Z,74.33
2023-05-22T06:09:35.615Z,74.39
2023-05-22T06:10:35.603Z,74.19
2023-05-22T06:11:35.590Z,74.29
2023-05-22T06:12:35.592Z,74.39
2023-05-22T06:13:35.575Z,74.39
2023-05-22T06:14:35.551Z,74.33
2023-05-22T06:15:35.555Z,74.73
2023-05-22T06:16:35.570Z,73.99
2023-05-22T06:17:35.580Z,73.89
2023-05-22T06:18:37.193Z,73.49
2023-05-22T06:19:35.582Z,73.86
2023-05-22T06:20:35.477Z,73.96
2023-05-22T06:21:35.456Z,73.02
2023-05-22T06:22:35.456Z,73.72
2023-05-22T06:23:35.429Z,73.92
2023-05-22T06:24:35.443Z,73.42
2023-05-22T06:25:35.403Z,73.28
2023-05-22T06:26:35.398Z,74.22
2023-05-22T06:27:35.392Z,74.52
2023-05-22T06:28:35.361Z,73.92
2023-05-22T06:29:35.354Z,74.46
2023-05-22T06:30:40.128Z,74.55
2023-05-22T06:31:35.439Z,74.36
2023-05-22T06:32:35.385Z,73.96
2023-05-22T06:33:35.383Z,73.96
2023-05-22T06:34:35.286Z,73.66
2023-05-22T06:35:35.278Z,73.66
2023-05-22T06:36:35.281Z,73.96
2023-05-22T06:37:35.249Z,74.05
2023-05-22T06:38:35.233Z,73.56
2023-05-22T06:39:35.220Z,74.26
2023-05-22T06:40:42.293Z,73.56
2023-05-22T06:41:35.216Z,73.69
2023-05-22T06:42:35.180Z,74.26
2023-05-22T06:43:35.202Z,74.39
2023-05-22T06:44:35.156Z,74.26
2023-05-22T06:45:35.187Z,73.96
2023-05-22T06:46:35.229Z,74.05
2023-05-22T06:47:35.397Z,73.66
2023-05-22T06:48:35.118Z,73.62
2023-05-22T06:49:35.095Z,73.32
2023-05-22T06:50:35.094Z,72.49
2023-05-22T06:51:35.080Z,71.66
2023-05-22T06:52:35.052Z,70.92
2023-05-22T06:53:35.048Z,70.69
2023-05-22T06:54:35.020Z,69.86
2023-05-22T06:55:35.035Z,69.82
2023-05-22T06:56:34.997Z,69.53
2023-05-22T06:57:34.983Z,69.02
2023-05-22T06:58:34.971Z,69.69
2023-05-22T06:59:34.960Z,69.16
2023-05-22T07:00:34.959Z,68.16
2023-05-22T07:01:34.975Z,68.46
2023-05-22T07:02:34.982Z,68.27
2023-05-22T07:03:34.955Z,67.63
2023-05-22T07:04:34.918Z,67.60
2023-05-22T07:05:34.914Z,67.00
2023-05-22T07:06:34.871Z,66.41
2023-05-22T07:07:34.857Z,66.18
2023-05-22T07:08:34.845Z,65.55
2023-05-22T07:09:34.854Z,64.50
2023-05-22T07:10:35.687Z,63.67
2023-05-22T07:11:34.815Z,63.37
2023-05-22T07:12:34.791Z,63.37
2023-05-22T07:13:35.686Z,63.24
2023-05-22T07:14:34.788Z,63.15
2023-05-22T07:15:34.752Z,62.92
2023-05-22T07:16:34.756Z,62.68
2023-05-22T07:17:34.756Z,63.13
2023-05-22T07:18:34.717Z,64.39
2023-05-22T07:19:34.753Z,64.79
2023-05-22T07:20:34.687Z,64.26
2023-05-22T07:21:34.681Z,64.36
2023-05-22T07:22:34.656Z,64.76
2023-05-22T07:23:34.673Z,63.48
2023-05-22T07:24:34.654Z,62.45
2023-05-22T07:25:34.616Z,62.12
2023-05-22T07:26:34.606Z,61.07
2023-05-22T07:27:34.591Z,60.00
2023-05-22T07:28:34.595Z,59.08
2023-05-22T07:29:34.573Z,58.95
2023-05-22T07:30:34.557Z,57.97
2023-05-22T07:31:34.658Z,58.14
2023-05-22T07:32:34.592Z,58.69
2023-05-22T07:33:34.533Z,58.46
2023-05-22T07:34:34.590Z,58.65
2023-05-22T07:35:34.662Z,58.53
2023-05-22T07:36:34.481Z,59.15
2023-05-22T07:37:34.464Z,58.11
2023-05-22T07:38:34.468Z,57.56
2023-05-22T07:39:34.444Z,56.54
2023-05-22T07:40:34.421Z,55.16
2023-05-22T07:41:34.410Z,55.76
2023-05-22T07:42:34.418Z,55.04
2023-05-22T07:43:34.405Z,54.82
2023-05-22T07:44:34.382Z,55.16
2023-05-22T07:45:34.362Z,54.57
2023-05-22T07:46:34.389Z,54.87
2023-05-22T07:47:34.432Z,54.91
2023-05-22T07:48:34.333Z,53.46
2023-05-22T07:49:34.302Z,53.11
2023-05-22T07:50:34.299Z,52.89
2023-05-22T07:51:34.574Z,52.72
2023-05-22T07:52:34.793Z,53.31
2023-05-22T07:53:34.259Z,52.65
2023-05-22T07:54:34.258Z,52.30
2023-05-22T07:55:34.243Z,51.49
2023-05-22T07:56:34.216Z,50.68
2023-05-22T07:57:34.223Z,50.42
2023-05-22T07:58:34.193Z,51.34
2023-05-22T07:59:34.185Z,51.69
2023-05-22T08:00:34.173Z,52.38
2023-05-22T08:01:34.170Z,52.08
2023-05-22T08:02:34.236Z,52.58
2023-05-22T08:03:34.295Z,53.16
2023-05-22T08:04:34.205Z,52.67
2023-05-22T08:05:34.114Z,51.79
2023-05-22T08:06:34.110Z,52.23
2023-05-22T08:07:34.220Z,51.07
2023-05-22T08:08:34.073Z,51.69
2023-05-22T08:09:34.063Z,51.10
2023-05-22T08:10:52.117Z,50.29
2023-05-22T08:11:34.049Z,52.36
2023-05-22T08:12:34.015Z,52.98
2023-05-22T08:13:34.003Z,52.70
2023-05-22T08:14:33.990Z,51.54
2023-05-22T08:15:33.974Z,50.19
2023-05-22T08:16:34.016Z,49.38
2023-05-22T08:17:33.998Z,48.47
2023-05-22T08:18:33.938Z,49.48
2023-05-22T08:19:34.066Z,52.53
2023-05-22T08:20:33.959Z,51.86
2023-05-22T08:21:33.918Z,50.51
2023-05-22T08:22:33.902Z,49.41
2023-05-22T08:23:33.986Z,48.11
2023-05-22T08:24:33.865Z,49.82
2023-05-22T08:25:33.872Z,52.90
2023-05-22T08:26:33.892Z,50.88
2023-05-22T08:27:33.832Z,49.35
2023-05-22T08:28:33.821Z,48.82
2023-05-22T08:29:33.937Z,48.01
2023-05-22T08:30:33.810Z,47.86
2023-05-22T08:31:33.857Z,47.11
2023-05-22T08:32:33.816Z,45.76
2023-05-22T08:33:33.758Z,43.71
2023-05-22T08:34:33.742Z,46.17
2023-05-22T08:35:33.744Z,46.13
2023-05-22T08:36:33.750Z,45.40
2023-05-22T08:37:33.706Z,44.93
2023-05-22T08:38:33.704Z,45.93
2023-05-22T08:39:33.846Z,45.40
2023-05-22T08:40:33.688Z,46.41
2023-05-22T08:41:33.665Z,47.39
2023-05-22T08:42:33.646Z,47.64
2023-05-22T08:43:33.639Z,48.08
2023-05-22T08:44:33.642Z,49.90
2023-05-22T08:45:33.633Z,50.73
2023-05-22T08:46:33.666Z,51.94
2023-05-22T08:47:33.604Z,50.44
2023-05-22T08:48:33.713Z,50.21
2023-05-22T08:49:33.576Z,49.97
2023-05-22T08:50:33.563Z,49.01
2023-05-22T08:51:33.542Z,47.39
2023-05-22T08:52:33.535Z,48.13
2023-05-22T08:53:33.517Z,49.23
2023-05-22T08:54:33.524Z,50.66
2023-05-22T08:55:33.544Z,51.18
2023-05-22T08:56:35.363Z,51.52
2023-05-22T08:57:33.480Z,51.59
2023-05-22T08:58:33.466Z,50.04
2023-05-22T08:59:33.467Z,49.13
2023-05-22T09:00:33.441Z,47.88
2023-05-22T09:01:33.493Z,46.66
2023-05-22T09:02:33.431Z,47.52
2023-05-22T09:03:33.562Z,47.64
2023-05-22T09:04:33.386Z,48.71
2023-05-22T09:05:33.373Z,50.93
2023-05-22T09:06:33.361Z,49.16
2023-05-22T09:07:33.360Z,47.59
2023-05-22T09:08:33.352Z,46.30
2023-05-22T09:09:33.334Z,44.67
2023-05-22T09:10:33.315Z,44.43
2023-05-22T09:11:33.333Z,43.04
2023-05-22T09:12:33.301Z,43.77
2023-05-22T09:13:33.301Z,44.01
2023-05-22T09:14:33.268Z,43.84
2023-05-22T09:15:33.259Z,44.93
2023-05-22T09:16:33.257Z,44.42
2023-05-22T09:17:33.324Z,43.23
2023-05-22T09:18:33.221Z,43.30
2023-05-22T09:19:33.317Z,43.32
2023-05-22T09:20:33.203Z,43.79
2023-05-22T09:21:33.186Z,44.71
2023-05-22T09:22:33.184Z,44.69
2023-05-22T09:23:33.157Z,43.87
2023-05-22T09:24:33.152Z,43.48
2023-05-22T09:25:33.139Z,44.93
2023-05-22T09:26:33.157Z,45.18
2023-05-22T09:27:33.381Z,44.65
2023-05-22T09:28:33.126Z,44.64
2023-05-22T09:29:33.092Z,46.86
2023-05-22T09:30:33.085Z,46.50
2023-05-22T09:31:33.137Z,45.76
2023-05-22T09:32:33.097Z,47.39
2023-05-22T09:33:33.050Z,47.84
2023-05-22T09:34:33.038Z,46.57
2023-05-22T09:35:33.025Z,45.08
2023-05-22T09:36:33.033Z,45.62
2023-05-22T09:37:33.005Z,44.92
2023-05-22T09:38:32.991Z,44.34
2023-05-22T09:39:32.980Z,44.34
2023-05-22T09:40:32.967Z,43.65
2023-05-22T09:41:32.990Z,43.85
2023-05-22T09:42:32.948Z,43.85
2023-05-22T09:43:33.049Z,44.02
2023-05-22T09:44:33.086Z,43.65
2023-05-22T09:45:32.913Z,44.35
2023-05-22T09:46:32.935Z,44.04
2023-05-22T09:47:32.904Z,42.90
2023-05-22T09:48:32.874Z,43.08
2023-05-22T09:49:32.868Z,42.66
2023-05-22T09:50:32.909Z,42.18
2023-05-22T09:51:32.877Z,42.06
2023-05-22T09:52:32.827Z,42.28
2023-05-22T09:53:32.825Z,42.24
2023-05-22T09:54:32.844Z,43.48
2023-05-22T09:55:32.830Z,44.98
2023-05-22T09:56:39.170Z,44.94
2023-05-22T09:57:32.776Z,44.70
2023-05-22T09:58:32.757Z,45.39
2023-05-22T09:59:32.773Z,43.02
2023-05-22T10:00:32.751Z,42.93
2023-05-22T10:01:32.759Z,42.79
2023-05-22T10:02:32.833Z,42.99
2023-05-22T10:03:32.703Z,45.49
2023-05-22T10:04:32.787Z,45.54
2023-05-22T10:05:32.752Z,45.25
2023-05-22T10:06:32.660Z,46.03
2023-05-22T10:07:32.651Z,44.62
2023-05-22T10:08:32.640Z,44.38
2023-05-22T10:09:32.650Z,44.04
2023-05-22T10:10:32.634Z,43.95
2023-05-22T10:11:32.603Z,43.12
2023-05-22T10:12:32.593Z,43.49
2023-05-22T10:13:32.575Z,42.90
2023-05-22T10:14:32.676Z,43.27
2023-05-22T10:15:32.704Z,43.10
2023-05-22T10:16:32.614Z,44.81
2023-05-22T10:17:32.583Z,46.50
2023-05-22T10:18:32.519Z,45.40
2023-05-22T10:19:32.587Z,45.97
2023-05-22T10:20:32.493Z,45.23
2023-05-22T10:21:32.485Z,45.14
2023-05-22T10:22:32.469Z,44.43
2023-05-22T10:23:32.477Z,44.19
2023-05-22T10:24:32.465Z,43.68
2023-05-22T10:25:32.446Z,42.83
2023-05-22T10:26:32.448Z,44.73
2023-05-22T10:27:32.412Z,43.92
2023-05-22T10:28:32.414Z,42.44
2023-05-22T10:29:32.425Z,43.91
2023-05-22T10:30:32.380Z,45.56
2023-05-22T10:31:32.488Z,46.17
2023-05-22T10:32:32.374Z,45.81
2023-05-22T10:33:32.370Z,45.08
2023-05-22T10:34:32.328Z,44.45
2023-05-22T10:35:32.318Z,44.57
2023-05-22T10:36:32.321Z,44.14
2023-05-22T10:37:32.309Z,44.03
2023-05-22T10:38:32.295Z,45.79
2023-05-22T10:39:32.272Z,45.06
2023-05-22T10:40:32.675Z,44.73
2023-05-22T10:41:32.254Z,44.34
2023-05-22T10:42:32.247Z,44.09
2023-05-22T10:43:32.236Z,43.49
2023-05-22T10:44:32.208Z,42.86
2023-05-22T10:45:32.309Z,41.85
2023-05-22T10:46:32.279Z,42.24
2023-05-22T10:47:32.316Z,41.77
2023-05-22T10:48:32.163Z,42.25
2023-05-22T10:49:32.158Z,42.04
2023-05-22T10:50:32.137Z,41.80
2023-05-22T10:51:32.124Z,40.73
2023-05-22T10:52:32.129Z,41.32
2023-05-22T10:53:32.108Z,41.38
2023-05-22T10:54:32.094Z,40.81
2023-05-22T10:55:32.087Z,42.29
2023-05-22T10:56:32.094Z,41.13
2023-05-22T10:57:32.074Z,41.53
2023-05-22T10:58:32.053Z,41.22
2023-05-22T10:59:32.036Z,42.10
2023-05-22T11:00:32.080Z,41.61
2023-05-22T11:01:32.148Z,41.14
2023-05-22T11:02:32.074Z,41.14
2023-05-22T11:03:32.140Z,40.66
2023-05-22T11:04:32.016Z,40.64
2023-05-22T11:05:31.970Z,40.60
2023-05-22T11:06:31.970Z,42.55
2023-05-22T11:07:31.946Z,43.52
2023-05-22T11:08:31.937Z,44.91
2023-05-22T11:09:31.922Z,45.04
2023-05-22T11:10:31.930Z,43.36
2023-05-22T11:11:31.917Z,42.71
2023-05-22T11:12:31.897Z,42.30
2023-05-22T11:13:31.893Z,42.55
2023-05-22T11:14:31.863Z,41.53
2023-05-22T11:15:31.865Z,41.57
2023-05-22T11:16:31.859Z,40.88
2023-05-22T11:17:31.936Z,40.75
2023-05-22T11:18:31.817Z,39.96
2023-05-22T11:19:31.946Z,38.95
2023-05-22T11:20:31.819Z,41.09
2023-05-22T11:21:31.784Z,40.97
2023-05-22T11:22:31.779Z,40.33
2023-05-22T11:23:31.758Z,38.54
2023-05-22T11:24:31.747Z,38.23
2023-05-22T11:25:31.749Z,38.40
2023-05-22T11:26:31.736Z,36.99
2023-05-22T11:27:31.712Z,38.93
2023-05-22T11:28:31.701Z,40.29
2023-05-22T11:29:31.714Z,39.67
2023-05-22T11:30:31.708Z,39.76
2023-05-22T11:31:31.709Z,39.14
2023-05-22T11:32:31.736Z,39.22
2023-05-22T11:33:31.643Z,39.06
2023-05-22T11:34:31.682Z,39.55
2023-05-22T11:35:31.738Z,39.86
2023-05-22T11:36:31.613Z,40.34
2023-05-22T11:37:31.603Z,39.06
2023-05-22T11:38:31.597Z,39.29
2023-05-22T11:39:31.594Z,42.21
2023-05-22T11:40:31.568Z,43.59
2023-05-22T11:41:33.417Z,43.69
2023-05-22T11:42:31.543Z,43.87
2023-05-22T11:43:31.550Z,43.80
2023-05-22T11:44:31.548Z,41.54
2023-05-22T11:45:31.526Z,42.85
2023-05-22T11:46:31.517Z,42.61
2023-05-22T11:47:31.501Z,40.72
2023-05-22T11:48:31.489Z,42.38
2023-05-22T11:49:31.500Z,42.55
2023-05-22T11:50:41.673Z,43.19
2023-05-22T11:51:32.563Z,41.96
2023-05-22T11:52:31.430Z,41.46
2023-05-22T11:53:31.430Z,41.28
2023-05-22T11:54:31.404Z,41.26
2023-05-22T11:55:31.396Z,40.56
2023-05-22T11:56:31.380Z,39.98
2023-05-22T11:57:31.381Z,40.03
2023-05-22T11:58:31.370Z,39.04
2023-05-22T11:59:31.348Z,40.00
2023-05-22T12:00:31.639Z,38.83
2023-05-22T12:01:31.317Z,38.85
2023-05-22T12:02:31.390Z,38.21
2023-05-22T12:03:31.497Z,39.98
2023-05-22T12:04:31.286Z,39.47
2023-05-22T12:05:31.265Z,39.61
2023-05-22T12:06:31.282Z,39.78
2023-05-22T12:07:31.377Z,39.76
2023-05-22T12:08:31.245Z,39.43
2023-05-22T12:09:31.220Z,38.42
2023-05-22T12:10:31.209Z,37.96
2023-05-22T12:11:31.197Z,38.73
2023-05-22T12:12:31.205Z,38.13
2023-05-22T12:13:31.199Z,37.73
2023-05-22T12:14:31.169Z,38.00
2023-05-22T12:15:31.236Z,37.01
2023-05-22T12:16:31.231Z,36.76
2023-05-22T12:17:31.195Z,36.66
2023-05-22T12:18:31.115Z,36.52
2023-05-22T12:19:31.237Z,35.88
2023-05-22T12:20:31.096Z,37.55
2023-05-22T12:21:31.093Z,38.06
2023-05-22T12:22:31.071Z,37.98
2023-05-22T12:23:31.181Z,37.55
2023-05-22T12:24:31.047Z,37.40
2023-05-22T12:25:31.036Z,36.18
2023-05-22T12:26:31.044Z,37.24
2023-05-22T12:27:32.926Z,36.20
2023-05-22T12:28:30.998Z,35.81
2023-05-22T12:29:30.996Z,36.51
2023-05-22T12:30:31.018Z,36.51
2023-05-22T12:31:31.154Z,36.25
2023-05-22T12:32:31.221Z,36.85
2023-05-22T12:33:30.941Z,36.34
2023-05-22T12:34:30.993Z,38.84
2023-05-22T12:35:31.082Z,40.74
2023-05-22T12:36:30.986Z,41.74
2023-05-22T12:37:30.902Z,41.35
2023-05-22T12:38:31.359Z,41.36
2023-05-22T12:39:31.071Z,41.99
2023-05-22T12:40:30.876Z,41.39
2023-05-22T12:41:30.850Z,40.88
2023-05-22T12:42:30.845Z,40.29
2023-05-22T12:43:30.836Z,40.60
2023-05-22T12:44:30.828Z,41.66
2023-05-22T12:45:30.818Z,39.82
2023-05-22T12:46:30.851Z,40.70
2023-05-22T12:47:30.825Z,39.98
2023-05-22T12:48:30.770Z,39.55
2023-05-22T12:49:30.793Z,39.12
2023-05-22T12:50:30.757Z,39.84
2023-05-22T12:51:30.732Z,40.80
2023-05-22T12:52:30.723Z,39.61